sensor_id;sensor_type;location;lat;lon;timestamp;temperature;humidity
33382;DHT22;21342;48.786;9.166;2022-07-15T00:02:18;21.60;57.60
33382;DHT22;21342;48.786;9.166;2022-07-15T00:04:45;21.60;57.80
33382;DHT22;21342;48.786;9.166;2022-07-15T00:07:13;21.70;58.30
33382;DHT22;21342;48.786;9.166;2022-07-15T00:09:41;21.70;57.70
33382;DHT22;21342;48.786;9.166;2022-07-15T00:12:26;21.60;58.20
33382;DHT22;21342;48.786;9.166;2022-07-15T00:14:53;21.40;57.70
33382;DHT22;21342;48.786;9.166;2022-07-15T00:17:20;21.30;58.10
33382;DHT22;21342;48.786;9.166;2022-07-15T00:19:47;21.40;58.50
33382;DHT22;21342;48.786;9.166;2022-07-15T00:22:14;21.30;58.10
33382;DHT22;21342;48.786;9.166;2022-07-15T00:24:43;21.30;58.50
33382;DHT22;21342;48.786;9.166;2022-07-15T00:27:10;21.20;58.10
33382;DHT22;21342;48.786;9.166;2022-07-15T00:29:39;21.20;58.30
33382;DHT22;21342;48.786;9.166;2022-07-15T00:32:06;21.20;58.60
33382;DHT22;21342;48.786;9.166;2022-07-15T00:34:33;21.00;58.60
33382;DHT22;21342;48.786;9.166;2022-07-15T00:37:01;21.00;58.80
33382;DHT22;21342;48.786;9.166;2022-07-15T00:39:28;20.90;59.00
33382;DHT22;21342;48.786;9.166;2022-07-15T00:41:57;20.90;59.10
33382;DHT22;21342;48.786;9.166;2022-07-15T00:44:24;20.90;59.50
33382;DHT22;21342;48.786;9.166;2022-07-15T00:46:52;21.00;59.20
33382;DHT22;21342;48.786;9.166;2022-07-15T00:49:19;20.90;59.20
33382;DHT22;21342;48.786;9.166;2022-07-15T00:51:49;20.90;59.60
33382;DHT22;21342;48.786;9.166;2022-07-15T00:54:17;20.90;59.40
33382;DHT22;21342;48.786;9.166;2022-07-15T00:56:50;20.80;59.40
33382;DHT22;21342;48.786;9.166;2022-07-15T00:59:20;20.70;59.30
33382;DHT22;21342;48.786;9.166;2022-07-15T01:01:49;20.80;59.30
33382;DHT22;21342;48.786;9.166;2022-07-15T01:04:18;20.80;59.50
33382;DHT22;21342;48.786;9.166;2022-07-15T01:06:46;20.80;59.10
33382;DHT22;21342;48.786;9.166;2022-07-15T01:09:13;20.70;59.30
33382;DHT22;21342;48.786;9.166;2022-07-15T01:11:40;20.70;59.40
33382;DHT22;21342;48.786;9.166;2022-07-15T01:14:08;20.60;59.40
33382;DHT22;21342;48.786;9.166;2022-07-15T01:16:36;20.60;59.20
33382;DHT22;21342;48.786;9.166;2022-07-15T01:19:03;20.60;59.10
33382;DHT22;21342;48.786;9.166;2022-07-15T01:21:32;20.60;59.50
33382;DHT22;21342;48.786;9.166;2022-07-15T01:23:59;20.50;59.20
33382;DHT22;21342;48.786;9.166;2022-07-15T01:26:26;20.50;59.70
33382;DHT22;21342;48.786;9.166;2022-07-15T01:28:54;20.60;59.70
33382;DHT22;21342;48.786;9.166;2022-07-15T01:31:21;20.60;60.00
33382;DHT22;21342;48.786;9.166;2022-07-15T01:33:48;20.50;59.70
33382;DHT22;21342;48.786;9.166;2022-07-15T01:36:15;20.40;60.00
33382;DHT22;21342;48.786;9.166;2022-07-15T01:38:44;20.30;59.50
33382;DHT22;21342;48.786;9.166;2022-07-15T01:41:11;20.30;59.60
33382;DHT22;21342;48.786;9.166;2022-07-15T01:43:39;20.30;59.70
33382;DHT22;21342;48.786;9.166;2022-07-15T01:46:06;20.30;59.50
33382;DHT22;21342;48.786;9.166;2022-07-15T01:48:33;20.20;59.30
33382;DHT22;21342;48.786;9.166;2022-07-15T01:51:18;20.20;59.70
33382;DHT22;21342;48.786;9.166;2022-07-15T01:53:46;20.30;59.30
33382;DHT22;21342;48.786;9.166;2022-07-15T01:56:14;20.30;59.90
33382;DHT22;21342;48.786;9.166;2022-07-15T01:58:41;20.30;59.80
33382;DHT22;21342;48.786;9.166;2022-07-15T02:01:08;20.20;59.70
33382;DHT22;21342;48.786;9.166;2022-07-15T02:03:35;20.20;60.10
33382;DHT22;21342;48.786;9.166;2022-07-15T02:06:03;20.10;59.70
33382;DHT22;21342;48.786;9.166;2022-07-15T02:08:31;20.10;59.80
33382;DHT22;21342;48.786;9.166;2022-07-15T02:10:59;20.20;60.30
33382;DHT22;21342;48.786;9.166;2022-07-15T02:13:26;20.20;60.10
33382;DHT22;21342;48.786;9.166;2022-07-15T02:15:55;20.10;60.10
33382;DHT22;21342;48.786;9.166;2022-07-15T02:18:22;20.10;60.10
33382;DHT22;21342;48.786;9.166;2022-07-15T02:20:49;20.00;59.90
33382;DHT22;21342;48.786;9.166;2022-07-15T02:23:16;19.80;60.10
33382;DHT22;21342;48.786;9.166;2022-07-15T02:25:43;19.70;60.80
33382;DHT22;21342;48.786;9.166;2022-07-15T02:28:12;19.70;61.80
33382;DHT22;21342;48.786;9.166;2022-07-15T02:30:43;19.80;60.90
33382;DHT22;21342;48.786;9.166;2022-07-15T02:33:10;19.70;61.60
33382;DHT22;21342;48.786;9.166;2022-07-15T02:35:40;19.50;62.00
33382;DHT22;21342;48.786;9.166;2022-07-15T02:38:08;19.30;62.10
33382;DHT22;21342;48.786;9.166;2022-07-15T02:40:35;19.20;61.90
33382;DHT22;21342;48.786;9.166;2022-07-15T02:43:03;19.30;62.30
33382;DHT22;21342;48.786;9.166;2022-07-15T02:45:34;19.30;62.50
33382;DHT22;21342;48.786;9.166;2022-07-15T02:48:01;19.40;64.30
33382;DHT22;21342;48.786;9.166;2022-07-15T02:50:29;19.40;63.50
33382;DHT22;21342;48.786;9.166;2022-07-15T02:52:56;19.40;63.90
33382;DHT22;21342;48.786;9.166;2022-07-15T02:55:23;19.40;63.30
33382;DHT22;21342;48.786;9.166;2022-07-15T02:57:50;19.40;63.10
33382;DHT22;21342;48.786;9.166;2022-07-15T03:00:18;19.40;63.50
33382;DHT22;21342;48.786;9.166;2022-07-15T03:02:47;19.50;64.10
33382;DHT22;21342;48.786;9.166;2022-07-15T03:05:15;19.40;63.90
33382;DHT22;21342;48.786;9.166;2022-07-15T03:07:43;19.40;64.30
33382;DHT22;21342;48.786;9.166;2022-07-15T03:10:11;19.40;64.60
33382;DHT22;21342;48.786;9.166;2022-07-15T03:12:39;19.40;64.50
33382;DHT22;21342;48.786;9.166;2022-07-15T03:15:07;19.20;64.10
33382;DHT22;21342;48.786;9.166;2022-07-15T03:17:34;19.10;65.10
33382;DHT22;21342;48.786;9.166;2022-07-15T03:20:03;19.10;65.20
33382;DHT22;21342;48.786;9.166;2022-07-15T03:22:31;18.90;65.20
33382;DHT22;21342;48.786;9.166;2022-07-15T03:24:58;18.70;65.70
33382;DHT22;21342;48.786;9.166;2022-07-15T03:27:26;18.50;66.50
33382;DHT22;21342;48.786;9.166;2022-07-15T03:29:53;18.40;66.90
33382;DHT22;21342;48.786;9.166;2022-07-15T03:32:20;18.40;67.40
33382;DHT22;21342;48.786;9.166;2022-07-15T03:34:48;18.50;67.50
33382;DHT22;21342;48.786;9.166;2022-07-15T03:37:17;18.50;67.80
33382;DHT22;21342;48.786;9.166;2022-07-15T03:39:44;18.40;68.20
33382;DHT22;21342;48.786;9.166;2022-07-15T03:42:11;18.30;68.60
33382;DHT22;21342;48.786;9.166;2022-07-15T03:44:39;18.20;69.00
33382;DHT22;21342;48.786;9.166;2022-07-15T03:47:06;18.20;69.40
33382;DHT22;21342;48.786;9.166;2022-07-15T03:49:33;18.30;71.00
33382;DHT22;21342;48.786;9.166;2022-07-15T03:52:00;18.50;71.20
33382;DHT22;21342;48.786;9.166;2022-07-15T03:54:29;18.50;70.30
33382;DHT22;21342;48.786;9.166;2022-07-15T03:56:56;18.40;70.10
33382;DHT22;21342;48.786;9.166;2022-07-15T03:59:24;18.50;70.50
33382;DHT22;21342;48.786;9.166;2022-07-15T04:01:52;18.50;71.30
33382;DHT22;21342;48.786;9.166;2022-07-15T04:04:19;18.50;70.80
33382;DHT22;21342;48.786;9.166;2022-07-15T04:06:46;18.40;71.50
33382;DHT22;21342;48.786;9.166;2022-07-15T04:09:13;18.60;73.20
33382;DHT22;21342;48.786;9.166;2022-07-15T04:11:42;18.80;74.60
33382;DHT22;21342;48.786;9.166;2022-07-15T04:14:10;18.70;72.30
33382;DHT22;21342;48.786;9.166;2022-07-15T04:16:38;18.60;72.40
33382;DHT22;21342;48.786;9.166;2022-07-15T04:19:06;18.60;72.90
33382;DHT22;21342;48.786;9.166;2022-07-15T04:21:33;18.70;73.40
33382;DHT22;21342;48.786;9.166;2022-07-15T04:24:01;18.70;72.70
33382;DHT22;21342;48.786;9.166;2022-07-15T04:26:28;18.60;73.60
33382;DHT22;21342;48.786;9.166;2022-07-15T04:28:56;18.70;74.10
33382;DHT22;21342;48.786;9.166;2022-07-15T04:31:24;18.70;74.60
33382;DHT22;21342;48.786;9.166;2022-07-15T04:33:51;18.80;74.60
33382;DHT22;21342;48.786;9.166;2022-07-15T04:36:18;18.80;74.80
33382;DHT22;21342;48.786;9.166;2022-07-15T04:38:45;18.80;74.40
33382;DHT22;21342;48.786;9.166;2022-07-15T04:41:12;19.00;76.60
33382;DHT22;21342;48.786;9.166;2022-07-15T04:43:39;19.10;76.10
33382;DHT22;21342;48.786;9.166;2022-07-15T04:46:08;19.00;76.20
33382;DHT22;21342;48.786;9.166;2022-07-15T04:48:35;19.10;77.00
33382;DHT22;21342;48.786;9.166;2022-07-15T04:51:19;19.20;77.30
33382;DHT22;21342;48.786;9.166;2022-07-15T04:53:47;19.20;76.80
33382;DHT22;21342;48.786;9.166;2022-07-15T04:56:14;19.20;76.70
33382;DHT22;21342;48.786;9.166;2022-07-15T04:58:42;19.30;77.50
33382;DHT22;21342;48.786;9.166;2022-07-15T05:01:10;19.30;77.20
33382;DHT22;21342;48.786;9.166;2022-07-15T05:03:38;19.30;77.70
33382;DHT22;21342;48.786;9.166;2022-07-15T05:06:05;19.40;78.30
33382;DHT22;21342;48.786;9.166;2022-07-15T05:08:32;19.40;78.10
33382;DHT22;21342;48.786;9.166;2022-07-15T05:10:59;19.40;75.80
33382;DHT22;21342;48.786;9.166;2022-07-15T05:13:27;19.40;76.80
33382;DHT22;21342;48.786;9.166;2022-07-15T05:15:54;19.50;78.70
33382;DHT22;21342;48.786;9.166;2022-07-15T05:18:22;19.50;76.80
33382;DHT22;21342;48.786;9.166;2022-07-15T05:20:51;19.50;77.60
33382;DHT22;21342;48.786;9.166;2022-07-15T05:23:18;19.50;75.60
33382;DHT22;21342;48.786;9.166;2022-07-15T05:25:45;19.60;77.30
33382;DHT22;21342;48.786;9.166;2022-07-15T05:28:12;19.70;76.40
33382;DHT22;21342;48.786;9.166;2022-07-15T05:30:39;19.60;75.70
33382;DHT22;21342;48.786;9.166;2022-07-15T05:33:07;19.60;73.70
33382;DHT22;21342;48.786;9.166;2022-07-15T05:35:36;19.70;74.80
33382;DHT22;21342;48.786;9.166;2022-07-15T05:38:03;19.80;77.80
33382;DHT22;21342;48.786;9.166;2022-07-15T05:40:31;19.80;78.00
33382;DHT22;21342;48.786;9.166;2022-07-15T05:42:59;19.90;76.50
33382;DHT22;21342;48.786;9.166;2022-07-15T05:45:26;19.90;76.00
33382;DHT22;21342;48.786;9.166;2022-07-15T05:47:53;19.90;75.50
33382;DHT22;21342;48.786;9.166;2022-07-15T05:50:21;19.90;74.10
33382;DHT22;21342;48.786;9.166;2022-07-15T05:52:49;19.90;72.00
33382;DHT22;21342;48.786;9.166;2022-07-15T05:55:17;19.90;71.80
33382;DHT22;21342;48.786;9.166;2022-07-15T05:57:44;19.90;70.50
33382;DHT22;21342;48.786;9.166;2022-07-15T06:00:12;20.00;70.70
33382;DHT22;21342;48.786;9.166;2022-07-15T06:02:40;20.10;71.70
33382;DHT22;21342;48.786;9.166;2022-07-15T06:05:08;20.10;69.70
33382;DHT22;21342;48.786;9.166;2022-07-15T06:07:35;20.20;73.50
33382;DHT22;21342;48.786;9.166;2022-07-15T06:10:05;20.20;69.70
33382;DHT22;21342;48.786;9.166;2022-07-15T06:12:32;20.20;70.00
33382;DHT22;21342;48.786;9.166;2022-07-15T06:15:00;20.10;69.30
33382;DHT22;21342;48.786;9.166;2022-07-15T06:17:27;20.20;72.00
33382;DHT22;21342;48.786;9.166;2022-07-15T06:19:56;20.20;66.40
33382;DHT22;21342;48.786;9.166;2022-07-15T06:22:23;20.30;70.00
33382;DHT22;21342;48.786;9.166;2022-07-15T06:24:51;20.40;67.70
33382;DHT22;21342;48.786;9.166;2022-07-15T06:27:20;20.50;68.30
33382;DHT22;21342;48.786;9.166;2022-07-15T06:29:48;20.60;66.50
33382;DHT22;21342;48.786;9.166;2022-07-15T06:32:15;20.60;66.00
33382;DHT22;21342;48.786;9.166;2022-07-15T06:34:42;20.60;68.10
33382;DHT22;21342;48.786;9.166;2022-07-15T06:37:10;20.60;69.10
33382;DHT22;21342;48.786;9.166;2022-07-15T06:39:37;20.70;68.50
33382;DHT22;21342;48.786;9.166;2022-07-15T06:42:04;20.80;69.60
33382;DHT22;21342;48.786;9.166;2022-07-15T06:44:34;20.80;65.90
33382;DHT22;21342;48.786;9.166;2022-07-15T06:47:01;20.90;65.00
33382;DHT22;21342;48.786;9.166;2022-07-15T06:49:32;20.90;64.90
33382;DHT22;21342;48.786;9.166;2022-07-15T06:52:00;21.00;63.30
33382;DHT22;21342;48.786;9.166;2022-07-15T06:54:27;20.90;59.80
33382;DHT22;21342;48.786;9.166;2022-07-15T06:56:54;21.00;61.90
33382;DHT22;21342;48.786;9.166;2022-07-15T06:59:22;21.10;63.00
33382;DHT22;21342;48.786;9.166;2022-07-15T07:01:50;21.20;62.30
33382;DHT22;21342;48.786;9.166;2022-07-15T07:04:18;21.20;59.20
33382;DHT22;21342;48.786;9.166;2022-07-15T07:06:45;21.20;59.60
33382;DHT22;21342;48.786;9.166;2022-07-15T07:09:13;21.20;59.70
33382;DHT22;21342;48.786;9.166;2022-07-15T07:11:40;21.30;60.30
33382;DHT22;21342;48.786;9.166;2022-07-15T07:14:07;21.40;58.60
33382;DHT22;21342;48.786;9.166;2022-07-15T07:16:34;21.50;59.10
33382;DHT22;21342;48.786;9.166;2022-07-15T07:19:03;21.80;59.20
33382;DHT22;21342;48.786;9.166;2022-07-15T07:21:30;22.30;57.70
33382;DHT22;21342;48.786;9.166;2022-07-15T07:23:58;22.80;56.20
33382;DHT22;21342;48.786;9.166;2022-07-15T07:26:26;23.50;57.80
33382;DHT22;21342;48.786;9.166;2022-07-15T07:28:53;23.90;55.30
33382;DHT22;21342;48.786;9.166;2022-07-15T07:31:20;24.50;55.40
33382;DHT22;21342;48.786;9.166;2022-07-15T07:33:52;25.00;56.70
33382;DHT22;21342;48.786;9.166;2022-07-15T07:36:20;25.40;55.90
33382;DHT22;21342;48.786;9.166;2022-07-15T07:38:48;25.50;54.50
33382;DHT22;21342;48.786;9.166;2022-07-15T07:41:15;25.90;53.50
33382;DHT22;21342;48.786;9.166;2022-07-15T07:43:43;26.00;53.90
33382;DHT22;21342;48.786;9.166;2022-07-15T07:46:11;25.60;53.70
33382;DHT22;21342;48.786;9.166;2022-07-15T07:48:39;26.00;53.40
33382;DHT22;21342;48.786;9.166;2022-07-15T07:51:06;26.40;54.10
33382;DHT22;21342;48.786;9.166;2022-07-15T07:53:36;26.50;51.70
33382;DHT22;21342;48.786;9.166;2022-07-15T07:56:03;27.10;53.00
33382;DHT22;21342;48.786;9.166;2022-07-15T07:58:31;27.10;52.00
33382;DHT22;21342;48.786;9.166;2022-07-15T08:00:58;27.20;51.80
33382;DHT22;21342;48.786;9.166;2022-07-15T08:03:25;27.30;51.40
33382;DHT22;21342;48.786;9.166;2022-07-15T08:05:54;27.50;51.90
33382;DHT22;21342;48.786;9.166;2022-07-15T08:08:22;27.60;49.20
33382;DHT22;21342;48.786;9.166;2022-07-15T08:10:52;28.30;49.50
33382;DHT22;21342;48.786;9.166;2022-07-15T08:13:20;28.40;49.30
33382;DHT22;21342;48.786;9.166;2022-07-15T08:15:48;28.20;48.60
33382;DHT22;21342;48.786;9.166;2022-07-15T08:18:16;28.40;49.90
33382;DHT22;21342;48.786;9.166;2022-07-15T08:20:43;29.10;48.90
33382;DHT22;21342;48.786;9.166;2022-07-15T08:23:10;29.00;47.70
33382;DHT22;21342;48.786;9.166;2022-07-15T08:25:38;29.00;47.30
33382;DHT22;21342;48.786;9.166;2022-07-15T08:28:07;28.10;47.90
33382;DHT22;21342;48.786;9.166;2022-07-15T08:30:34;28.10;48.30
33382;DHT22;21342;48.786;9.166;2022-07-15T08:33:02;28.40;47.20
33382;DHT22;21342;48.786;9.166;2022-07-15T08:35:30;28.90;47.10
33382;DHT22;21342;48.786;9.166;2022-07-15T08:37:57;29.50;46.40
33382;DHT22;21342;48.786;9.166;2022-07-15T08:40:26;29.90;47.10
33382;DHT22;21342;48.786;9.166;2022-07-15T08:42:53;28.80;46.40
33382;DHT22;21342;48.786;9.166;2022-07-15T08:45:22;29.10;47.40
33382;DHT22;21342;48.786;9.166;2022-07-15T08:47:51;29.40;47.10
33382;DHT22;21342;48.786;9.166;2022-07-15T08:50:19;29.70;46.80
33382;DHT22;21342;48.786;9.166;2022-07-15T08:52:47;29.80;45.40
33382;DHT22;21342;48.786;9.166;2022-07-15T08:55:16;28.40;46.20
33382;DHT22;21342;48.786;9.166;2022-07-15T08:57:45;28.70;46.40
33382;DHT22;21342;48.786;9.166;2022-07-15T09:00:13;29.70;46.60
33382;DHT22;21342;48.786;9.166;2022-07-15T09:02:42;30.20;46.50
33382;DHT22;21342;48.786;9.166;2022-07-15T09:05:20;29.90;45.20
33382;DHT22;21342;48.786;9.166;2022-07-15T09:07:54;30.40;45.90
33382;DHT22;21342;48.786;9.166;2022-07-15T09:10:22;30.60;45.90
33382;DHT22;21342;48.786;9.166;2022-07-15T09:12:50;30.90;46.10
33382;DHT22;21342;48.786;9.166;2022-07-15T09:15:31;31.50;45.20
33382;DHT22;21342;48.786;9.166;2022-07-15T09:18:05;30.50;44.40
33382;DHT22;21342;48.786;9.166;2022-07-15T09:20:33;30.10;46.30
33382;DHT22;21342;48.786;9.166;2022-07-15T09:23:01;30.30;46.40
33382;DHT22;21342;48.786;9.166;2022-07-15T09:25:30;30.70;45.10
33382;DHT22;21342;48.786;9.166;2022-07-15T09:27:59;30.50;45.70
33382;DHT22;21342;48.786;9.166;2022-07-15T09:30:29;30.70;46.20
33382;DHT22;21342;48.786;9.166;2022-07-15T09:33:16;29.00;45.90
33382;DHT22;21342;48.786;9.166;2022-07-15T09:36:08;28.50;47.00
33382;DHT22;21342;48.786;9.166;2022-07-15T09:38:45;29.30;47.40
33382;DHT22;21342;48.786;9.166;2022-07-15T09:41:20;29.70;46.20
33382;DHT22;21342;48.786;9.166;2022-07-15T09:43:53;30.40;46.70
33382;DHT22;21342;48.786;9.166;2022-07-15T09:46:22;31.10;45.60
33382;DHT22;21342;48.786;9.166;2022-07-15T09:48:52;30.20;44.70
33382;DHT22;21342;48.786;9.166;2022-07-15T09:51:20;29.70;45.80
33382;DHT22;21342;48.786;9.166;2022-07-15T09:53:48;30.40;45.80
33382;DHT22;21342;48.786;9.166;2022-07-15T09:56:19;31.30;45.20
33382;DHT22;21342;48.786;9.166;2022-07-15T09:58:52;32.00;45.50
33382;DHT22;21342;48.786;9.166;2022-07-15T10:01:19;32.20;43.90
33382;DHT22;21342;48.786;9.166;2022-07-15T10:03:46;32.20;43.20
33382;DHT22;21342;48.786;9.166;2022-07-15T10:06:17;32.60;44.20
33382;DHT22;21342;48.786;9.166;2022-07-15T10:08:47;31.70;43.10
33382;DHT22;21342;48.786;9.166;2022-07-15T10:11:15;31.30;44.00
33382;DHT22;21342;48.786;9.166;2022-07-15T10:17:18;28.70;45.20
33382;DHT22;21342;48.786;9.166;2022-07-15T10:22:54;29.80;45.80
33382;DHT22;21342;48.786;9.166;2022-07-15T10:28:13;29.80;44.90
33382;DHT22;21342;48.786;9.166;2022-07-15T10:30:42;29.90;45.70
33382;DHT22;21342;48.786;9.166;2022-07-15T10:33:14;29.90;44.70
33382;DHT22;21342;48.786;9.166;2022-07-15T10:35:46;30.20;45.60
33382;DHT22;21342;48.786;9.166;2022-07-15T10:38:26;31.20;45.10
33382;DHT22;21342;48.786;9.166;2022-07-15T10:40:58;31.00;43.80
33382;DHT22;21342;48.786;9.166;2022-07-15T10:43:41;30.70;45.10
33382;DHT22;21342;48.786;9.166;2022-07-15T10:46:33;31.10;44.90
33382;DHT22;21342;48.786;9.166;2022-07-15T10:52:14;30.50;45.50
33382;DHT22;21342;48.786;9.166;2022-07-15T10:54:50;30.90;45.40
33382;DHT22;21342;48.786;9.166;2022-07-15T10:57:18;31.20;44.10
33382;DHT22;21342;48.786;9.166;2022-07-15T10:59:51;30.00;45.70
33382;DHT22;21342;48.786;9.166;2022-07-15T11:02:20;30.60;45.80
33382;DHT22;21342;48.786;9.166;2022-07-15T11:04:50;30.00;46.30
33382;DHT22;21342;48.786;9.166;2022-07-15T11:07:28;29.60;46.60
33382;DHT22;21342;48.786;9.166;2022-07-15T11:10:16;29.30;46.50
33382;DHT22;21342;48.786;9.166;2022-07-15T11:12:59;29.60;46.70
33382;DHT22;21342;48.786;9.166;2022-07-15T11:15:27;29.60;46.60
33382;DHT22;21342;48.786;9.166;2022-07-15T11:17:56;29.80;46.20
33382;DHT22;21342;48.786;9.166;2022-07-15T11:20:29;29.90;46.50
33382;DHT22;21342;48.786;9.166;2022-07-15T11:23:02;29.80;45.70
33382;DHT22;21342;48.786;9.166;2022-07-15T11:25:33;30.50;45.70
33382;DHT22;21342;48.786;9.166;2022-07-15T11:28:04;30.10;47.00
33382;DHT22;21342;48.786;9.166;2022-07-15T11:30:34;29.60;46.40
33382;DHT22;21342;48.786;9.166;2022-07-15T11:33:03;28.90;46.10
33382;DHT22;21342;48.786;9.166;2022-07-15T11:35:31;29.20;45.40
33382;DHT22;21342;48.786;9.166;2022-07-15T11:38:09;29.20;46.70
33382;DHT22;21342;48.786;9.166;2022-07-15T11:40:43;29.20;47.30
33382;DHT22;21342;48.786;9.166;2022-07-15T11:43:28;30.10;47.20
33382;DHT22;21342;48.786;9.166;2022-07-15T11:46:13;30.50;45.50
33382;DHT22;21342;48.786;9.166;2022-07-15T11:48:41;30.00;46.50
33382;DHT22;21342;48.786;9.166;2022-07-15T11:51:10;29.60;46.50
33382;DHT22;21342;48.786;9.166;2022-07-15T11:53:39;28.90;46.80
33382;DHT22;21342;48.786;9.166;2022-07-15T11:56:09;29.80;46.40
33382;DHT22;21342;48.786;9.166;2022-07-15T11:58:39;29.80;46.00
33382;DHT22;21342;48.786;9.166;2022-07-15T12:01:08;29.70;46.70
33382;DHT22;21342;48.786;9.166;2022-07-15T12:03:38;30.00;45.70
33382;DHT22;21342;48.786;9.166;2022-07-15T12:06:11;29.50;46.30
33382;DHT22;21342;48.786;9.166;2022-07-15T12:08:44;29.20;47.40
33382;DHT22;21342;48.786;9.166;2022-07-15T12:11:18;28.80;47.20
33382;DHT22;21342;48.786;9.166;2022-07-15T12:13:49;29.50;47.50
33382;DHT22;21342;48.786;9.166;2022-07-15T12:16:23;29.80;46.30
33382;DHT22;21342;48.786;9.166;2022-07-15T12:18:52;29.30;47.20
33382;DHT22;21342;48.786;9.166;2022-07-15T12:21:21;29.20;46.40
33382;DHT22;21342;48.786;9.166;2022-07-15T12:24:02;29.30;47.60
33382;DHT22;21342;48.786;9.166;2022-07-15T12:26:35;29.10;48.00
33382;DHT22;21342;48.786;9.166;2022-07-15T12:29:05;29.00;48.00
33382;DHT22;21342;48.786;9.166;2022-07-15T12:31:33;28.50;48.00
33382;DHT22;21342;48.786;9.166;2022-07-15T12:34:01;28.70;46.70
33382;DHT22;21342;48.786;9.166;2022-07-15T12:36:30;29.10;48.00
33382;DHT22;21342;48.786;9.166;2022-07-15T12:39:15;28.70;48.60
33382;DHT22;21342;48.786;9.166;2022-07-15T12:41:57;28.90;47.20
33382;DHT22;21342;48.786;9.166;2022-07-15T12:44:27;29.50;48.00
33382;DHT22;21342;48.786;9.166;2022-07-15T12:46:56;29.60;48.00
33382;DHT22;21342;48.786;9.166;2022-07-15T12:49:41;29.20;46.50
33382;DHT22;21342;48.786;9.166;2022-07-15T12:52:30;29.40;47.60
33382;DHT22;21342;48.786;9.166;2022-07-15T12:54:59;28.90;48.20
33382;DHT22;21342;48.786;9.166;2022-07-15T12:57:37;29.00;48.50
33382;DHT22;21342;48.786;9.166;2022-07-15T13:00:09;28.70;47.60
33382;DHT22;21342;48.786;9.166;2022-07-15T13:03:00;29.00;46.70
33382;DHT22;21342;48.786;9.166;2022-07-15T13:05:30;29.60;48.00
33382;DHT22;21342;48.786;9.166;2022-07-15T13:07:57;29.30;46.60
33382;DHT22;21342;48.786;9.166;2022-07-15T13:10:25;29.30;48.10
33382;DHT22;21342;48.786;9.166;2022-07-15T13:12:55;28.90;47.50
33382;DHT22;21342;48.786;9.166;2022-07-15T13:15:22;28.70;48.40
33382;DHT22;21342;48.786;9.166;2022-07-15T13:17:49;29.00;46.90
33382;DHT22;21342;48.786;9.166;2022-07-15T13:20:17;29.40;47.50
33382;DHT22;21342;48.786;9.166;2022-07-15T13:22:44;29.60;47.20
33382;DHT22;21342;48.786;9.166;2022-07-15T13:25:11;29.80;47.50
33382;DHT22;21342;48.786;9.166;2022-07-15T13:27:39;29.70;47.50
33382;DHT22;21342;48.786;9.166;2022-07-15T13:30:09;29.50;47.50
33382;DHT22;21342;48.786;9.166;2022-07-15T13:32:37;29.60;49.40
33382;DHT22;21342;48.786;9.166;2022-07-15T13:35:05;28.90;49.00
33382;DHT22;21342;48.786;9.166;2022-07-15T13:37:32;28.80;49.00
33382;DHT22;21342;48.786;9.166;2022-07-15T13:40:00;28.40;48.30
33382;DHT22;21342;48.786;9.166;2022-07-15T13:42:27;28.20;48.60
33382;DHT22;21342;48.786;9.166;2022-07-15T13:44:55;28.40;48.80
33382;DHT22;21342;48.786;9.166;2022-07-15T13:47:25;28.50;49.10
33382;DHT22;21342;48.786;9.166;2022-07-15T13:49:52;28.40;48.50
33382;DHT22;21342;48.786;9.166;2022-07-15T13:52:41;28.10;47.70
33382;DHT22;21342;48.786;9.166;2022-07-15T13:55:11;28.20;48.50
33382;DHT22;21342;48.786;9.166;2022-07-15T13:57:38;28.20;49.20
33382;DHT22;21342;48.786;9.166;2022-07-15T14:00:08;27.90;47.70
33382;DHT22;21342;48.786;9.166;2022-07-15T14:02:39;28.10;48.30
33382;DHT22;21342;48.786;9.166;2022-07-15T14:05:10;27.90;48.20
33382;DHT22;21342;48.786;9.166;2022-07-15T14:07:38;27.80;49.40
33382;DHT22;21342;48.786;9.166;2022-07-15T14:10:06;27.50;49.10
33382;DHT22;21342;48.786;9.166;2022-07-15T14:12:34;27.50;48.20
33382;DHT22;21342;48.786;9.166;2022-07-15T14:15:01;27.70;48.60
33382;DHT22;21342;48.786;9.166;2022-07-15T14:17:29;27.80;49.40
33382;DHT22;21342;48.786;9.166;2022-07-15T14:19:58;28.00;48.50
33382;DHT22;21342;48.786;9.166;2022-07-15T14:22:26;28.00;49.90
33382;DHT22;21342;48.786;9.166;2022-07-15T14:24:55;28.10;49.20
33382;DHT22;21342;48.786;9.166;2022-07-15T14:27:22;28.30;48.30
33382;DHT22;21342;48.786;9.166;2022-07-15T14:29:49;28.40;49.60
33382;DHT22;21342;48.786;9.166;2022-07-15T14:32:17;28.20;50.00
33382;DHT22;21342;48.786;9.166;2022-07-15T14:34:44;28.30;48.00
33382;DHT22;21342;48.786;9.166;2022-07-15T14:37:13;28.30;50.00
33382;DHT22;21342;48.786;9.166;2022-07-15T14:39:40;27.90;49.00
33382;DHT22;21342;48.786;9.166;2022-07-15T14:42:07;27.60;48.60
33382;DHT22;21342;48.786;9.166;2022-07-15T14:44:34;27.60;50.00
33382;DHT22;21342;48.786;9.166;2022-07-15T14:47:02;27.40;49.20
33382;DHT22;21342;48.786;9.166;2022-07-15T14:49:29;27.30;50.10
33382;DHT22;21342;48.786;9.166;2022-07-15T14:51:56;27.20;49.00
33382;DHT22;21342;48.786;9.166;2022-07-15T14:54:25;26.90;50.50
33382;DHT22;21342;48.786;9.166;2022-07-15T14:56:52;27.10;49.10
33382;DHT22;21342;48.786;9.166;2022-07-15T14:59:19;27.10;48.80
33382;DHT22;21342;48.786;9.166;2022-07-15T15:01:46;27.20;50.70
33382;DHT22;21342;48.786;9.166;2022-07-15T15:04:14;27.00;49.10
33382;DHT22;21342;48.786;9.166;2022-07-15T15:06:41;26.80;49.50
33382;DHT22;21342;48.786;9.166;2022-07-15T15:09:08;26.90;50.60
33382;DHT22;21342;48.786;9.166;2022-07-15T15:11:37;27.00;51.50
33382;DHT22;21342;48.786;9.166;2022-07-15T15:14:04;26.90;50.90
33382;DHT22;21342;48.786;9.166;2022-07-15T15:16:31;26.90;50.40
33382;DHT22;21342;48.786;9.166;2022-07-15T15:18:58;26.90;50.50
33382;DHT22;21342;48.786;9.166;2022-07-15T15:21:26;26.80;49.20
33382;DHT22;21342;48.786;9.166;2022-07-15T15:23:53;27.00;49.80
33382;DHT22;21342;48.786;9.166;2022-07-15T15:26:20;27.00;50.60
33382;DHT22;21342;48.786;9.166;2022-07-15T15:28:53;27.00;49.20
33382;DHT22;21342;48.786;9.166;2022-07-15T15:31:21;26.90;50.60
33382;DHT22;21342;48.786;9.166;2022-07-15T15:33:50;26.90;51.10
33382;DHT22;21342;48.786;9.166;2022-07-15T15:36:17;26.70;50.00
33382;DHT22;21342;48.786;9.166;2022-07-15T15:38:45;26.70;49.10
33382;DHT22;21342;48.786;9.166;2022-07-15T15:41:12;26.80;48.70
33382;DHT22;21342;48.786;9.166;2022-07-15T15:43:39;26.80;50.80
33382;DHT22;21342;48.786;9.166;2022-07-15T15:46:09;26.70;49.90
33382;DHT22;21342;48.786;9.166;2022-07-15T15:48:37;26.80;50.00
33382;DHT22;21342;48.786;9.166;2022-07-15T15:51:04;26.80;50.00
33382;DHT22;21342;48.786;9.166;2022-07-15T15:53:31;26.80;50.50
33382;DHT22;21342;48.786;9.166;2022-07-15T15:55:58;26.70;50.10